Time;durP1;ratioP1;P1;durP2;ratioP2;P2;SDS_P1;SDS_P2;PMS_P1;PMS_P2;Temp;Humidity;BMP_temperature;BMP_pressure;BME280_temperature;BME280_humidity;BME280_pressure;Samples;Min_cycle;Max_cycle;Signal;HPM_P1;HPM_P2
2021/04/14 00:01:14;;;;;;;2.55;0.90;;;3.70;79.40;;;;;;3556201;40;20754;-70
2021/04/14 00:03:40;;;;;;;5.55;0.90;;;3.70;79.40;;;;;;3557396;40;20025;-70
2021/04/14 00:06:10;;;;;;;5.28;0.90;;;3.60;79.80;;;;;;3554351;40;20033;-69
2021/04/14 00:08:36;;;;;;;8.20;1.83;;;3.60;80.00;;;;;;3551904;40;20085;-70
2021/04/14 00:11:04;;;;;;;3.83;1.10;;;3.60;79.80;;;;;;3549635;40;20026;-63
2021/04/14 00:13:38;;;;;;;6.35;1.27;;;3.60;79.80;;;;;;3550611;40;20026;-63
2021/04/14 00:16:04;;;;;;;1.85;0.98;;;3.60;79.90;;;;;;3552945;40;20029;-64
2021/04/14 00:18:29;;;;;;;6.65;1.00;;;3.70;79.90;;;;;;3555121;40;20030;-63
2021/04/14 00:20:55;;;;;;;5.30;1.20;;;3.60;79.50;;;;;;3557325;40;20561;-63
2021/04/14 00:23:22;;;;;;;2.97;1.77;;;3.60;79.50;;;;;;3557437;40;20115;-63
2021/04/14 00:25:50;;;;;;;8.65;1.70;;;3.60;79.30;;;;;;3555429;40;20079;-62
2021/04/14 00:28:19;;;;;;;6.63;0.93;;;3.60;79.60;;;;;;3552436;40;20037;-62
2021/04/14 00:30:45;;;;;;;4.78;0.73;;;3.60;80.20;;;;;;3555360;40;20068;-64
2021/04/14 00:33:11;;;;;;;3.83;0.85;;;3.60;80.30;;;;;;3557043;40;20044;-62
2021/04/14 00:35:37;;;;;;;5.32;0.80;;;3.60;79.70;;;;;;3554994;40;20034;-63
2021/04/14 00:38:03;;;;;;;5.10;0.95;;;3.60;79.70;;;;;;3553168;40;20119;-63
2021/04/14 00:40:32;;;;;;;7.65;1.10;;;3.60;80.60;;;;;;3550248;40;20046;-63
2021/04/14 00:42:58;;;;;;;5.50;1.25;;;3.60;79.80;;;;;;3548587;40;20038;-63
2021/04/14 00:45:25;;;;;;;7.15;1.67;;;3.60;79.70;;;;;;3549087;40;20033;-63
2021/04/14 00:47:51;;;;;;;4.07;1.02;;;3.50;79.60;;;;;;3553541;40;20072;-64
2021/04/14 00:50:20;;;;;;;3.67;1.02;;;3.50;79.70;;;;;;3550972;40;20636;-63
2021/04/14 00:52:46;;;;;;;2.88;0.70;;;3.40;79.70;;;;;;3547857;40;20045;-62
2021/04/14 00:55:16;;;;;;;4.68;0.95;;;3.30;80.60;;;;;;3550229;40;20033;-62
2021/04/14 00:57:42;;;;;;;3.53;0.90;;;3.30;80.90;;;;;;3552388;40;20030;-63
2021/04/14 01:00:26;;;;;;;6.18;1.17;;;3.30;80.90;;;;;;3554957;40;20102;-60
2021/04/14 01:02:52;;;;;;;4.57;0.80;;;3.30;80.60;;;;;;3557555;40;20380;-62
2021/04/14 01:05:19;;;;;;;6.75;1.10;;;3.20;81.10;;;;;;3556240;40;20029;-63
2021/04/14 01:07:47;;;;;;;4.60;1.08;;;3.20;81.30;;;;;;3553524;40;20026;-62
2021/04/14 01:10:14;;;;;;;8.05;1.38;;;3.20;80.90;;;;;;3555448;40;20034;-61
2021/04/14 01:12:40;;;;;;;4.10;0.90;;;3.20;80.70;;;;;;3557694;40;20041;-63
2021/04/14 01:15:08;;;;;;;6.88;1.00;;;3.20;80.80;;;;;;3558111;40;20037;-63
2021/04/14 01:17:34;;;;;;;6.40;1.60;;;3.20;80.90;;;;;;3555356;40;20030;-62
2021/04/14 01:20:00;;;;;;;6.53;1.13;;;3.20;81.30;;;;;;3552928;40;20335;-62
2021/04/14 01:22:25;;;;;;;4.22;1.00;;;3.20;81.20;;;;;;3549562;40;20033;-61
2021/04/14 01:24:51;;;;;;;8.27;1.58;;;3.20;80.90;;;;;;3549606;40;20713;-61
2021/04/14 01:27:17;;;;;;;6.65;1.63;;;3.20;80.80;;;;;;3551830;40;20026;-63
2021/04/14 01:29:42;;;;;;;6.20;1.20;;;3.20;80.30;;;;;;3553823;40;20034;-62
2021/04/14 01:32:08;;;;;;;4.38;1.05;;;3.20;81.20;;;;;;3554756;40;20040;-62
2021/04/14 01:34:34;;;;;;;6.13;1.10;;;3.10;81.40;;;;;;3557607;40;20043;-62
2021/04/14 01:37:00;;;;;;;7.78;1.02;;;3.10;81.50;;;;;;3555841;40;20069;-62
2021/04/14 01:39:25;;;;;;;3.83;1.20;;;3.10;81.60;;;;;;3553658;40;20033;-62
2021/04/14 01:41:51;;;;;;;4.97;1.08;;;3.10;81.50;;;;;;3549448;40;20034;-62
2021/04/14 01:44:17;;;;;;;8.95;2.50;;;3.10;81.70;;;;;;3549264;40;20482;-62
2021/04/14 01:46:43;;;;;;;1.98;0.90;;;3.10;81.50;;;;;;3556402;40;20041;-63
2021/04/14 01:49:10;;;;;;;5.13;1.40;;;3.10;81.80;;;;;;3553933;40;20132;-62
2021/04/14 01:51:36;;;;;;;4.57;1.08;;;3.10;81.80;;;;;;3554859;40;20032;-62
2021/04/14 01:54:03;;;;;;;7.75;1.40;;;3.10;81.70;;;;;;3557633;40;20033;-63
2021/04/14 01:56:29;;;;;;;7.63;1.40;;;3.20;81.80;;;;;;3556655;40;20048;-63
2021/04/14 01:58:55;;;;;;;8.70;1.17;;;3.10;81.60;;;;;;3554740;40;20069;-62
2021/04/14 02:01:21;;;;;;;5.68;1.27;;;3.10;81.40;;;;;;3552117;40;20100;-62
2021/04/14 02:03:47;;;;;;;6.40;1.13;;;3.10;81.60;;;;;;3549364;40;20439;-62
2021/04/14 02:06:15;;;;;;;8.48;1.90;;;3.10;81.80;;;;;;3556552;40;20037;-62
2021/04/14 02:08:42;;;;;;;8.07;1.17;;;3.00;81.90;;;;;;3554316;40;20030;-62
2021/04/14 02:11:09;;;;;;;7.07;1.20;;;3.00;81.60;;;;;;3551171;40;20030;-62
2021/04/14 02:13:37;;;;;;;6.95;1.83;;;3.00;81.60;;;;;;3550618;40;20022;-63
2021/04/14 02:16:05;;;;;;;3.25;1.30;;;3.00;81.80;;;;;;3548700;40;20089;-65
2021/04/14 02:18:31;;;;;;;4.57;1.52;;;3.00;81.80;;;;;;3549518;40;20028;-63
2021/04/14 02:20:59;;;;;;;5.18;0.90;;;3.00;81.80;;;;;;3552915;40;20034;-63
2021/04/14 02:23:28;;;;;;;6.03;1.23;;;2.90;82.00;;;;;;3555851;40;20028;-63
2021/04/14 02:25:59;;;;;;;4.78;1.75;;;3.00;82.20;;;;;;3556779;40;20752;-62
2021/04/14 02:28:25;;;;;;;8.07;1.10;;;2.90;81.80;;;;;;3555363;40;20032;-63
2021/04/14 02:30:51;;;;;;;5.07;1.75;;;2.90;81.80;;;;;;3552652;40;20025;-62
2021/04/14 02:33:18;;;;;;;3.83;1.00;;;2.90;81.80;;;;;;3550617;40;20029;-62
2021/04/14 02:35:44;;;;;;;7.20;1.35;;;2.90;81.70;;;;;;3549012;40;20049;-62
2021/04/14 02:38:12;;;;;;;7.35;1.05;;;2.90;81.50;;;;;;3555996;40;20053;-62
2021/04/14 02:40:38;;;;;;;4.30;1.15;;;2.90;81.40;;;;;;3553511;40;20025;-62
2021/04/14 02:43:05;;;;;;;4.78;1.38;;;2.80;81.30;;;;;;3553753;40;20030;-63
2021/04/14 02:45:33;;;;;;;6.43;1.63;;;2.80;82.00;;;;;;3554465;40;20144;-62
2021/04/14 02:47:59;;;;;;;7.97;1.83;;;2.80;82.10;;;;;;3554286;40;20064;-61
2021/04/14 02:50:25;;;;;;;9.13;1.40;;;2.70;82.40;;;;;;3553447;40;20040;-63
2021/04/14 02:52:51;;;;;;;6.30;1.70;;;2.70;82.80;;;;;;3550774;40;20041;-62
2021/04/14 02:55:18;;;;;;;8.18;1.48;;;2.60;82.80;;;;;;3548399;40;20486;-63
2021/04/14 02:57:44;;;;;;;8.95;1.42;;;2.70;83.10;;;;;;3549827;40;20042;-63
2021/04/14 03:00:11;;;;;;;7.85;2.00;;;2.70;83.00;;;;;;3552573;40;20143;-64
2021/04/14 03:02:37;;;;;;;9.20;1.75;;;2.70;83.20;;;;;;3551972;40;20026;-62
2021/04/14 03:05:06;;;;;;;8.27;1.30;;;2.60;83.00;;;;;;3548997;40;20034;-63
2021/04/14 03:07:32;;;;;;;8.55;1.38;;;2.60;83.00;;;;;;3548270;40;20034;-62
2021/04/14 03:09:57;;;;;;;5.93;1.38;;;2.60;82.90;;;;;;3551808;40;20029;-63
2021/04/14 03:12:23;;;;;;;6.75;2.20;;;2.60;82.60;;;;;;3552060;40;20030;-61
2021/04/14 03:14:49;;;;;;;5.75;1.40;;;2.60;83.20;;;;;;3548066;40;20038;-62
2021/04/14 03:17:15;;;;;;;6.82;1.33;;;2.60;83.10;;;;;;3552434;40;20029;-62
2021/04/14 03:19:41;;;;;;;7.53;1.95;;;2.60;83.50;;;;;;3557188;40;20376;-62
2021/04/14 03:22:07;;;;;;;9.10;1.50;;;2.50;83.10;;;;;;3554877;40;20171;-62
2021/04/14 03:24:33;;;;;;;8.85;1.08;;;2.50;83.40;;;;;;3555494;40;20034;-62
2021/04/14 03:26:59;;;;;;;6.88;1.42;;;2.50;83.10;;;;;;3557473;40;20049;-63
2021/04/14 03:29:24;;;;;;;7.40;1.30;;;2.50;83.40;;;;;;3555357;40;20030;-63
2021/04/14 03:31:50;;;;;;;4.70;1.80;;;2.50;83.70;;;;;;3553751;40;20032;-62
2021/04/14 03:34:16;;;;;;;6.97;1.58;;;2.50;83.70;;;;;;3551020;40;20045;-62
2021/04/14 03:36:41;;;;;;;6.30;1.42;;;2.40;83.90;;;;;;3550880;40;20423;-62
2021/04/14 03:39:07;;;;;;;4.75;1.55;;;2.40;84.10;;;;;;3553912;40;20057;-62
2021/04/14 03:41:34;;;;;;;11.63;1.42;;;2.40;84.20;;;;;;3551594;40;20030;-63
2021/04/14 03:44:00;;;;;;;9.95;1.40;;;2.40;84.10;;;;;;3553773;40;20769;-63
2021/04/14 03:46:26;;;;;;;8.18;1.65;;;2.40;84.00;;;;;;3556869;40;20038;-63
2021/04/14 03:48:53;;;;;;;4.47;1.50;;;2.40;83.90;;;;;;3556665;40;20145;-63
2021/04/14 03:51:21;;;;;;;6.90;2.05;;;2.40;83.80;;;;;;3555967;40;20040;-64
2021/04/14 03:53:47;;;;;;;12.63;1.95;;;2.40;84.30;;;;;;3555712;40;20413;-63
2021/04/14 03:56:18;;;;;;;4.45;1.27;;;2.40;84.50;;;;;;3553799;40;20037;-64
2021/04/14 03:58:49;;;;;;;16.48;3.97;;;2.30;84.50;;;;;;3551783;40;20041;-63
2021/04/14 04:01:22;;;;;;;4.13;1.98;;;2.40;84.90;;;;;;3552799;40;20053;-63
2021/04/14 04:03:48;;;;;;;5.88;1.52;;;2.40;84.30;;;;;;3555241;40;20040;-63
2021/04/14 04:06:13;;;;;;;7.53;1.67;;;2.40;84.20;;;;;;3553968;40;20033;-63
2021/04/14 04:08:39;;;;;;;7.60;1.70;;;2.40;84.40;;;;;;3556857;40;20036;-63
2021/04/14 04:11:05;;;;;;;4.68;1.45;;;2.30;84.40;;;;;;3554255;40;20053;-62
2021/04/14 04:13:33;;;;;;;4.05;1.58;;;2.40;84.00;;;;;;3554342;40;20040;-63
2021/04/14 04:15:59;;;;;;;4.10;1.35;;;2.30;84.20;;;;;;3554095;40;20674;-63
2021/04/14 04:18:24;;;;;;;6.13;1.38;;;2.30;84.80;;;;;;3555181;40;20026;-61
2021/04/14 04:20:50;;;;;;;6.35;1.52;;;2.30;84.70;;;;;;3556443;40;20060;-63
2021/04/14 04:23:16;;;;;;;8.30;1.75;;;2.30;84.60;;;;;;3553761;40;20074;-63
2021/04/14 04:25:41;;;;;;;7.15;1.52;;;2.40;85.00;;;;;;3555360;40;20017;-64
2021/04/14 04:28:07;;;;;;;9.15;1.67;;;2.40;84.60;;;;;;3552595;40;20022;-63
2021/04/14 04:30:34;;;;;;;7.43;1.92;;;2.40;84.40;;;;;;3557076;40;20033;-62
2021/04/14 04:33:00;;;;;;;10.35;1.90;;;2.40;84.30;;;;;;3554723;40;20040;-64
2021/04/14 04:35:28;;;;;;;4.97;2.28;;;2.40;84.10;;;;;;3556380;40;20038;-61
2021/04/14 04:37:54;;;;;;;10.63;1.80;;;2.40;84.30;;;;;;3555348;40;20044;-60
2021/04/14 04:40:21;;;;;;;4.75;1.40;;;2.40;84.10;;;;;;3553876;40;20053;-62
2021/04/14 04:42:48;;;;;;;11.50;1.80;;;2.40;84.40;;;;;;3554829;40;20041;-60
2021/04/14 04:45:16;;;;;;;8.90;1.65;;;2.40;84.70;;;;;;3553420;40;20037;-61
2021/04/14 04:47:42;;;;;;;9.70;2.20;;;2.40;84.70;;;;;;3550996;40;20037;-62
2021/04/14 04:52:43;;;;;;;5.88;2.33;;;2.50;84.90;;;;;;3616396;23;20063;-63
2021/04/14 04:55:10;;;;;;;6.60;1.92;;;2.60;84.80;;;;;;3559511;40;20045;-58
2021/04/14 04:57:36;;;;;;;5.88;1.88;;;2.60;85.20;;;;;;3558355;40;20030;-61
2021/04/14 05:00:04;;;;;;;9.65;2.15;;;2.70;85.00;;;;;;3557180;40;20168;-61
2021/04/14 05:02:30;;;;;;;9.32;1.90;;;2.70;85.10;;;;;;3557868;40;20056;-60
2021/04/14 05:04:56;;;;;;;8.13;1.98;;;2.80;84.80;;;;;;3556144;40;20026;-63
2021/04/14 05:07:22;;;;;;;11.50;1.92;;;2.90;84.70;;;;;;3555475;40;20052;-61
2021/04/14 05:09:47;;;;;;;8.60;1.83;;;2.90;84.60;;;;;;3557805;40;20053;-61
2021/04/14 05:12:13;;;;;;;12.48;2.30;;;3.00;84.60;;;;;;3557211;40;20144;-61
2021/04/14 05:14:39;;;;;;;9.32;1.80;;;3.00;84.60;;;;;;3559444;40;20390;-61
2021/04/14 05:17:05;;;;;;;5.75;2.20;;;3.20;84.50;;;;;;3547535;40;20391;-61
2021/04/14 05:19:31;;;;;;;6.13;1.48;;;3.30;84.00;;;;;;3558504;40;20034;-60
2021/04/14 05:21:57;;;;;;;8.95;1.98;;;3.30;83.50;;;;;;3558237;40;20044;-60
2021/04/14 05:24:23;;;;;;;11.10;2.65;;;3.30;83.60;;;;;;3556957;40;20041;-60
2021/04/14 05:26:49;;;;;;;18.52;5.10;;;3.40;83.50;;;;;;3558923;40;20508;-60
2021/04/14 05:29:15;;;;;;;12.05;2.83;;;3.50;83.10;;;;;;3558633;40;20041;-60
2021/04/14 05:31:42;;;;;;;5.00;1.98;;;3.60;82.50;;;;;;3558167;40;20029;-60
2021/04/14 05:34:11;;;;;;;9.20;2.30;;;3.60;82.30;;;;;;3547961;40;20046;-60
2021/04/14 05:36:38;;;;;;;8.10;2.28;;;3.70;82.60;;;;;;3556107;40;20062;-61
2021/04/14 05:39:04;;;;;;;7.40;1.58;;;3.70;83.00;;;;;;3557333;40;20037;-60
2021/04/14 05:41:30;;;;;;;13.75;2.10;;;3.80;82.40;;;;;;3552936;40;20042;-60
2021/04/14 05:43:56;;;;;;;7.35;2.40;;;4.00;82.10;;;;;;3557007;40;20124;-60
2021/04/14 05:46:21;;;;;;;12.88;2.65;;;4.20;81.50;;;;;;3558578;40;20073;-60
2021/04/14 05:48:49;;;;;;;10.07;2.58;;;4.60;81.10;;;;;;3557458;40;20678;-61
2021/04/14 05:51:22;;;;;;;9.40;2.50;;;4.90;78.60;;;;;;3558883;40;20063;-61
2021/04/14 05:53:49;;;;;;;18.17;2.83;;;5.20;77.10;;;;;;3557968;40;20029;-58
2021/04/14 05:56:14;;;;;;;8.45;2.05;;;5.50;76.40;;;;;;3558035;40;20652;-60
2021/04/14 05:58:40;;;;;;;13.15;2.95;;;5.90;74.50;;;;;;3556575;40;20037;-59
2021/04/14 06:01:08;;;;;;;10.48;2.10;;;6.20;73.50;;;;;;3556256;40;20040;-61
2021/04/14 06:03:34;;;;;;;12.65;2.47;;;6.50;71.90;;;;;;3556948;40;20110;-60
2021/04/14 06:06:00;;;;;;;8.23;2.40;;;6.90;70.80;;;;;;3557262;40;20462;-60
2021/04/14 06:08:27;;;;;;;12.90;2.30;;;7.30;69.70;;;;;;3557246;40;20284;-60
2021/04/14 06:10:53;;;;;;;12.05;3.42;;;7.80;67.60;;;;;;3556657;40;20674;-60
2021/04/14 06:13:19;;;;;;;7.57;2.22;;;8.30;65.70;;;;;;3556466;40;20126;-60
2021/04/14 06:15:45;;;;;;;12.63;2.03;;;8.90;62.70;;;;;;3556782;40;20060;-62
2021/04/14 06:18:11;;;;;;;11.20;2.80;;;9.10;61.80;;;;;;3556690;40;20061;-61
2021/04/14 06:20:37;;;;;;;9.18;2.42;;;9.20;60.80;;;;;;3555859;40;20036;-61
2021/04/14 06:23:08;;;;;;;8.40;2.17;;;9.20;60.90;;;;;;3555930;40;20022;-61
2021/04/14 06:25:41;;;;;;;8.95;2.10;;;9.30;60.10;;;;;;3553550;40;20119;-62
2021/04/14 06:28:09;;;;;;;11.15;2.45;;;9.30;61.20;;;;;;3554618;40;20069;-62
2021/04/14 06:30:36;;;;;;;9.23;2.17;;;9.40;61.20;;;;;;3554639;40;20026;-63
2021/04/14 06:33:05;;;;;;;10.00;2.30;;;9.30;61.10;;;;;;3555461;40;20821;-62
2021/04/14 06:35:31;;;;;;;14.60;2.60;;;9.40;60.40;;;;;;3553242;40;20046;-63
2021/04/14 06:37:59;;;;;;;13.10;2.25;;;9.40;60.80;;;;;;3555755;40;20022;-61
2021/04/14 06:40:50;;;;;;;10.35;2.30;;;9.40;61.20;;;;;;3555612;40;20085;-61
2021/04/14 06:43:39;;;;;;;12.27;2.47;;;9.50;61.00;;;;;;3556080;40;20108;-61
2021/04/14 06:46:15;;;;;;;13.25;2.97;;;9.50;60.90;;;;;;3554705;40;20033;-61
2021/04/14 06:48:58;;;;;;;7.63;3.05;;;9.50;60.00;;;;;;3556066;40;20066;-62
2021/04/14 06:51:43;;;;;;;12.80;2.35;;;9.50;60.90;;;;;;3555833;40;20041;-60
2021/04/14 06:54:35;;;;;;;11.73;2.58;;;9.40;61.10;;;;;;3555601;40;20037;-60
2021/04/14 06:57:05;;;;;;;10.90;2.67;;;9.30;61.80;;;;;;3555672;40;20021;-59
2021/04/14 06:59:34;;;;;;;7.28;1.75;;;9.30;62.20;;;;;;3555608;40;20348;-61
2021/04/14 07:02:13;;;;;;;10.30;2.50;;;9.30;62.50;;;;;;3555032;40;20048;-60
2021/04/14 07:04:44;;;;;;;15.02;2.65;;;9.30;61.40;;;;;;3555209;40;20037;-61
2021/04/14 07:07:17;;;;;;;11.63;3.20;;;9.20;62.30;;;;;;3555469;40;20032;-61
2021/04/14 07:09:47;;;;;;;8.63;2.55;;;9.10;61.20;;;;;;3555423;40;20042;-61
2021/04/14 07:12:24;;;;;;;10.05;2.05;;;8.90;63.00;;;;;;3560674;40;20409;-61
2021/04/14 07:14:50;;;;;;;;;;;8.90;63.50;;;;;;3555704;40;20402;-61
2021/04/14 07:17:42;;;;;;;8.43;2.30;;;8.80;63.10;;;;;;3555454;40;20350;-60
2021/04/14 07:20:23;;;;;;;12.07;2.90;;;8.70;63.60;;;;;;3555482;40;20040;-60
2021/04/14 07:23:18;;;;;;;11.02;2.08;;;8.70;64.10;;;;;;3554894;40;20149;-60
2021/04/14 07:26:23;;;;;;;7.97;1.98;;;8.70;64.30;;;;;;3557590;40;20034;-59
2021/04/14 07:29:27;;;;;;;8.68;2.90;;;8.90;64.00;;;;;;3554180;40;20030;-60
2021/04/14 07:32:22;;;;;;;12.63;2.63;;;9.10;62.90;;;;;;3549550;40;20044;-60
2021/04/14 07:35:12;;;;;;;7.45;2.60;;;9.10;62.70;;;;;;3553332;40;20045;-60
2021/04/14 07:38:06;;;;;;;9.63;2.50;;;9.00;62.90;;;;;;3553739;40;20037;-61
2021/04/14 07:40:42;;;;;;;9.35;2.45;;;9.30;63.30;;;;;;3553547;40;20101;-61
2021/04/14 07:43:13;;;;;;;12.00;2.42;;;9.60;62.20;;;;;;3554869;40;20945;-64
2021/04/14 07:45:39;;;;;;;14.55;2.63;;;10.00;60.40;;;;;;3555076;40;20045;-61
2021/04/14 07:48:09;;;;;;;10.80;2.40;;;10.30;60.40;;;;;;3553403;40;20098;-60
2021/04/14 07:50:47;;;;;;;11.73;2.55;;;10.70;57.60;;;;;;3555389;40;20345;-60
2021/04/14 07:53:21;;;;;;;12.82;2.28;;;11.10;57.60;;;;;;3552023;40;20324;-60
2021/04/14 07:55:47;;;;;;;12.20;2.10;;;11.10;57.30;;;;;;3555523;40;20040;-60
2021/04/14 07:58:17;;;;;;;8.90;2.47;;;10.90;56.00;;;;;;3556466;40;20060;-61
2021/04/14 08:00:46;;;;;;;8.50;2.13;;;10.80;56.90;;;;;;3561549;40;20037;-60
2021/04/14 08:03:26;;;;;;;9.32;2.40;;;10.60;57.10;;;;;;3560724;40;20279;-60
2021/04/14 08:05:52;;;;;;;9.80;1.95;;;10.30;58.00;;;;;;3557788;40;20037;-60
2021/04/14 08:08:29;;;;;;;13.70;2.33;;;10.20;58.90;;;;;;3556862;40;20326;-60
2021/04/14 08:11:02;;;;;;;9.32;2.13;;;10.10;59.70;;;;;;3557161;40;20067;-61
2021/04/14 08:13:37;;;;;;;15.90;2.20;;;10.70;59.40;;;;;;3556356;40;20036;-60
2021/04/14 08:16:15;;;;;;;7.45;1.98;;;10.70;55.40;;;;;;3556646;40;20081;-60
2021/04/14 08:18:53;;;;;;;13.18;2.45;;;10.50;56.90;;;;;;3555580;40;20111;-60
2021/04/14 08:21:28;;;;;;;8.35;1.83;;;10.70;58.50;;;;;;3556101;40;20026;-60
2021/04/14 08:23:58;;;;;;;9.98;2.10;;;10.90;56.70;;;;;;3557823;40;20034;-61
2021/04/14 08:26:25;;;;;;;10.77;1.75;;;10.90;56.60;;;;;;3558419;40;20123;-60
2021/04/14 08:28:54;;;;;;;7.55;1.70;;;11.10;56.10;;;;;;3558175;40;20103;-58
2021/04/14 08:31:45;;;;;;;8.15;2.08;;;11.20;55.40;;;;;;3558418;40;20041;-59
2021/04/14 08:34:56;;;;;;;11.95;2.42;;;11.50;54.80;;;;;;3554036;40;20032;-59
2021/04/14 08:37:23;;;;;;;13.52;2.15;;;12.00;53.70;;;;;;3561779;40;20046;-61
2021/04/14 08:40:12;;;;;;;6.60;2.10;;;12.10;53.30;;;;;;3558226;40;20025;-60
2021/04/14 08:42:39;;;;;;;7.55;2.00;;;12.00;53.70;;;;;;3558228;40;20742;-61
2021/04/14 08:45:05;;;;;;;4.95;2.10;;;12.10;53.20;;;;;;3558184;40;20032;-61
2021/04/14 08:47:33;;;;;;;15.90;1.80;;;11.80;52.80;;;;;;3558034;40;20037;-61
2021/04/14 08:50:24;;;;;;;4.35;1.30;;;11.50;53.60;;;;;;3557095;40;20045;-61
2021/04/14 08:52:55;;;;;;;8.82;2.00;;;11.20;53.20;;;;;;3558513;40;20766;-61
2021/04/14 08:55:24;;;;;;;7.05;1.55;;;11.10;53.50;;;;;;3557963;40;20038;-60
2021/04/14 08:57:56;;;;;;;12.85;2.28;;;11.00;54.80;;;;;;3557451;40;20033;-61
2021/04/14 09:00:24;;;;;;;11.65;2.33;;;10.90;54.90;;;;;;3558075;40;20595;-61
2021/04/14 09:02:52;;;;;;;18.95;2.05;;;10.80;53.00;;;;;;3558045;40;20034;-61
2021/04/14 09:05:20;;;;;;;6.68;1.70;;;10.90;55.60;;;;;;3558147;40;20057;-62
2021/04/14 09:07:48;;;;;;;6.65;1.35;;;11.50;52.80;;;;;;3558536;40;20398;-68
2021/04/14 09:10:56;;;;;;;8.18;1.70;;;12.40;50.20;;;;;;3556582;40;20108;-61
2021/04/14 09:13:47;;;;;;;7.25;1.38;;;13.50;47.40;;;;;;3556946;40;20033;-60
2021/04/14 09:16:25;;;;;;;7.88;1.77;;;14.20;44.80;;;;;;3557370;40;20134;-60
2021/04/14 09:18:51;;;;;;;6.13;1.63;;;14.90;42.60;;;;;;3558064;40;20037;-59
2021/04/14 09:21:21;;;;;;;5.55;1.38;;;15.10;40.30;;;;;;3557150;40;20123;-60
2021/04/14 09:23:57;;;;;;;8.93;1.63;;;15.40;42.60;;;;;;3557802;40;20045;-62
2021/04/14 09:26:37;;;;;;;6.93;1.88;;;15.10;42.50;;;;;;3556823;40;20059;-62
2021/04/14 09:29:20;;;;;;;8.15;1.63;;;15.30;41.80;;;;;;3558091;40;20033;-62
2021/04/14 09:31:51;;;;;;;5.63;1.55;;;15.00;41.80;;;;;;3556666;40;20490;-62
2021/04/14 09:34:39;;;;;;;9.57;1.98;;;14.30;43.10;;;;;;3556995;40;20734;-62
2021/04/14 09:37:11;;;;;;;6.80;1.67;;;14.00;43.50;;;;;;3556900;40;20044;-62
2021/04/14 09:39:46;;;;;;;5.18;1.58;;;14.30;41.50;;;;;;3557510;40;20218;-62
2021/04/14 09:42:17;;;;;;;7.30;1.77;;;14.30;43.30;;;;;;3557328;40;20022;-62
2021/04/14 09:44:46;;;;;;;6.38;1.50;;;14.20;43.20;;;;;;3558189;40;20131;-62
2021/04/14 09:47:20;;;;;;;4.95;1.23;;;14.10;43.50;;;;;;3557358;40;20045;-62
2021/04/14 09:49:48;;;;;;;4.80;1.10;;;14.20;42.80;;;;;;3551293;40;20026;-62
2021/04/14 09:52:46;;;;;;;8.43;2.15;;;14.40;40.40;;;;;;3557932;40;20045;-62
2021/04/14 09:55:21;;;;;;;6.95;1.27;;;14.00;41.80;;;;;;3557099;40;20041;-62
2021/04/14 09:57:49;;;;;;;5.07;1.10;;;13.60;41.90;;;;;;3557800;40;20029;-62
2021/04/14 10:00:23;;;;;;;5.18;1.10;;;13.40;44.30;;;;;;3562699;40;20395;-62
2021/04/14 10:02:57;;;;;;;5.50;1.00;;;13.80;41.80;;;;;;3556769;40;20037;-63
2021/04/14 10:05:31;;;;;;;6.35;1.10;;;14.60;37.40;;;;;;3558133;40;20029;-62
2021/04/14 10:08:03;;;;;;;7.88;1.48;;;15.60;35.80;;;;;;3557685;40;20104;-62
2021/04/14 10:10:29;;;;;;;4.65;1.23;;;15.80;36.00;;;;;;3557339;40;20358;-62
2021/04/14 10:12:57;;;;;;;6.13;1.25;;;15.20;37.40;;;;;;3558035;40;20707;-62
2021/04/14 10:15:36;;;;;;;4.60;1.00;;;14.50;39.40;;;;;;3557582;40;20078;-62
2021/04/14 10:18:32;;;;;;;3.75;0.93;;;13.90;40.60;;;;;;3556699;40;20033;-63
2021/04/14 10:21:18;;;;;;;4.55;1.25;;;13.40;36.40;;;;;;3553313;40;20089;-62
2021/04/14 10:23:45;;;;;;;4.13;1.17;;;13.00;41.60;;;;;;3555453;40;20041;-62
2021/04/14 10:26:12;;;;;;;5.13;1.33;;;12.80;42.40;;;;;;3557131;40;20033;-62
2021/04/14 10:28:43;;;;;;;6.65;1.42;;;12.60;43.70;;;;;;3556404;40;20673;-61
2021/04/14 10:31:23;;;;;;;5.15;0.90;;;12.30;43.00;;;;;;3554885;40;20774;-63
2021/04/14 10:33:49;;;;;;;5.72;1.50;;;12.20;43.70;;;;;;3557007;40;20045;-62
2021/04/14 10:36:20;;;;;;;3.38;1.30;;;12.10;43.30;;;;;;3557081;40;20037;-62
2021/04/14 10:38:46;;;;;;;4.45;1.27;;;12.10;45.00;;;;;;3557034;40;20062;-61
2021/04/14 10:41:16;;;;;;;4.05;1.17;;;12.10;45.30;;;;;;3555439;40;20045;-61
2021/04/14 10:43:42;;;;;;;5.07;1.52;;;12.00;45.30;;;;;;3557504;40;20115;-62
2021/04/14 10:46:10;;;;;;;3.55;1.60;;;12.00;46.50;;;;;;3557304;40;20041;-62
2021/04/14 10:48:41;;;;;;;3.40;1.00;;;12.10;44.40;;;;;;3557120;40;20021;-61
2021/04/14 10:51:10;;;;;;;4.80;1.77;;;12.10;44.60;;;;;;3556522;40;20032;-62
2021/04/14 10:53:40;;;;;;;5.38;1.30;;;12.30;43.30;;;;;;3556448;40;20047;-64
2021/04/14 10:56:18;;;;;;;5.65;1.02;;;12.40;43.50;;;;;;3555580;40;20037;-62
2021/04/14 10:58:44;;;;;;;9.85;1.17;;;12.50;42.90;;;;;;3556283;40;20028;-61
2021/04/14 11:01:13;;;;;;;9.93;1.25;;;12.50;42.60;;;;;;3555127;40;20426;-61
2021/04/14 11:03:44;;;;;;;3.75;0.90;;;12.50;43.70;;;;;;3556261;40;20682;-62
2021/04/14 11:06:11;;;;;;;6.00;1.30;;;12.40;43.70;;;;;;3554513;40;20128;-62
2021/04/14 11:08:39;;;;;;;4.45;1.52;;;12.40;42.80;;;;;;3555478;40;20124;-62
2021/04/14 11:11:05;;;;;;;3.08;0.85;;;12.20;44.40;;;;;;3555852;40;20036;-63
2021/04/14 11:13:34;;;;;;;4.10;1.15;;;12.10;45.00;;;;;;3555272;40;20166;-63
2021/04/14 11:16:01;;;;;;;3.38;0.90;;;12.00;44.60;;;;;;3555116;40;20065;-68
2021/04/14 11:18:35;;;;;;;1.98;0.77;;;12.10;44.90;;;;;;3555224;40;20692;-64
2021/04/14 11:23:34;;;;;;;5.47;1.45;;;12.30;41.10;;;;;;3555588;40;20814;-64
2021/04/14 11:26:18;;;;;;;4.63;0.93;;;12.20;41.20;;;;;;3556817;40;20684;-63
2021/04/14 11:28:52;;;;;;;2.97;1.02;;;12.00;42.90;;;;;;3556011;40;20741;-62
2021/04/14 11:31:38;;;;;;;3.97;0.93;;;11.90;43.20;;;;;;3556181;40;20096;-67
2021/04/14 11:34:21;;;;;;;2.15;0.70;;;11.80;43.10;;;;;;3557390;40;20030;-64
2021/04/14 11:37:10;;;;;;;3.75;1.00;;;11.70;43.50;;;;;;3555840;40;20029;-64
2021/04/14 11:40:03;;;;;;;4.78;1.50;;;11.60;44.00;;;;;;3557715;40;20037;-63
2021/04/14 11:42:51;;;;;;;3.78;1.10;;;11.70;45.70;;;;;;3557999;40;20033;-63
2021/04/14 11:45:35;;;;;;;4.97;0.98;;;11.70;43.30;;;;;;3558348;40;20076;-62
2021/04/14 11:48:12;;;;;;;5.22;1.60;;;11.80;42.90;;;;;;3558682;40;20089;-63
2021/04/14 11:50:40;;;;;;;4.55;0.75;;;11.90;40.30;;;;;;3557009;40;20147;-60
2021/04/14 11:53:29;;;;;;;3.50;0.80;;;11.90;41.90;;;;;;3558084;40;20100;-60
2021/04/14 11:55:56;;;;;;;5.28;1.17;;;12.00;41.00;;;;;;3542486;40;20175;-61
2021/04/14 11:58:33;;;;;;;2.78;0.95;;;12.10;40.50;;;;;;3557981;40;20038;-61
2021/04/14 12:01:00;;;;;;;5.03;1.02;;;12.20;41.40;;;;;;3558438;40;20049;-76
2021/04/14 12:03:28;;;;;;;4.10;0.90;;;12.30;42.40;;;;;;3556321;40;20052;-62
2021/04/14 12:05:59;;;;;;;5.60;1.30;;;12.40;43.40;;;;;;3557903;40;20045;-62
2021/04/14 12:08:26;;;;;;;5.95;0.98;;;12.60;42.80;;;;;;3558414;40;20088;-69
2021/04/14 12:10:53;;;;;;;4.32;1.10;;;12.70;42.20;;;;;;3557973;40;20030;-68
2021/04/14 12:13:21;;;;;;;4.40;1.20;;;12.60;41.20;;;;;;3556433;40;20147;-66
2021/04/14 12:15:48;;;;;;;5.18;1.20;;;12.60;41.90;;;;;;3557803;40;20034;-62
2021/04/14 12:18:14;;;;;;;6.22;1.27;;;12.50;40.10;;;;;;3558764;40;20342;-61
2021/04/14 12:20:39;;;;;;;4.15;0.93;;;12.50;39.10;;;;;;3558367;40;20103;-61
2021/04/14 12:23:05;;;;;;;5.95;1.00;;;12.40;41.60;;;;;;3558947;40;20045;-61
2021/04/14 12:25:31;;;;;;;1.15;0.80;;;12.60;38.80;;;;;;3560875;40;20427;-63
2021/04/14 12:27:56;;;;;;;5.35;1.00;;;12.80;34.90;;;;;;3560975;40;20112;-62
2021/04/14 12:30:25;;;;;;;3.22;1.00;;;13.20;37.10;;;;;;3560304;40;20044;-63
2021/04/14 12:32:52;;;;;;;6.68;1.60;;;13.30;38.00;;;;;;3558578;40;20037;-62
2021/04/14 12:35:21;;;;;;;2.35;0.95;;;13.40;37.60;;;;;;3559804;40;20122;-60
2021/04/14 12:37:46;;;;;;;3.00;0.80;;;13.40;36.00;;;;;;3558697;40;20652;-63
2021/04/14 12:40:14;;;;;;;3.85;1.02;;;13.30;39.10;;;;;;3556904;40;20104;-62
2021/04/14 12:42:40;;;;;;;0.93;0.60;;;13.20;37.90;;;;;;3556815;40;20858;-62
2021/04/14 12:45:30;;;;;;;4.57;1.13;;;13.20;38.10;;;;;;3558023;40;20087;-63
2021/04/14 12:47:55;;;;;;;2.85;0.90;;;13.30;38.60;;;;;;3556447;40;20096;-63
2021/04/14 12:50:21;;;;;;;3.97;1.60;;;13.30;36.50;;;;;;3556310;40;20025;-63
2021/04/14 12:52:51;;;;;;;2.53;0.60;;;13.40;35.80;;;;;;3558373;40;20634;-63
2021/04/14 12:55:45;;;;;;;4.30;1.40;;;13.40;33.20;;;;;;3556962;40;20065;-63
2021/04/14 12:58:16;;;;;;;29.85;22.00;;;13.30;35.80;;;;;;3564765;40;20037;-62
2021/04/14 13:00:42;;;;;;;17.88;12.13;;;13.30;36.20;;;;;;3558269;40;20061;-62
2021/04/14 13:03:45;;;;;;;29.50;19.77;;;13.40;36.60;;;;;;3558815;40;20021;-63
2021/04/14 13:06:36;;;;;;;3.22;1.40;;;13.40;39.00;;;;;;3558899;40;20062;-63
2021/04/14 13:09:05;;;;;;;3.60;1.30;;;13.30;38.60;;;;;;3557971;40;20029;-63
2021/04/14 13:11:36;;;;;;;4.13;1.30;;;13.20;39.00;;;;;;3555242;40;20045;-63
2021/04/14 13:14:02;;;;;;;5.60;1.42;;;13.20;39.60;;;;;;3557816;40;20709;-63